sensor_id;sensor_type;location;lat;lon;timestamp;P1;durP1;ratioP1;P2;durP2;ratioP2
52316;SDS011;38725;41.994;21.458;2022-09-09T00:00:14;10.25;;;6.53;;
52316;SDS011;38725;41.994;21.458;2022-09-09T00:02:41;10.00;;;6.85;;
52316;SDS011;38725;41.994;21.458;2022-09-09T00:05:17;8.40;;;7.05;;
52316;SDS011;38725;41.994;21.458;2022-09-09T00:07:47;10.05;;;7.10;;
52316;SDS011;38725;41.994;21.458;2022-09-09T00:15:12;8.18;;;7.03;;
52316;SDS011;38725;41.994;21.458;2022-09-09T00:17:41;9.05;;;7.03;;
52316;SDS011;38725;41.994;21.458;2022-09-09T00:20:13;11.02;;;7.13;;
52316;SDS011;38725;41.994;21.458;2022-09-09T00:22:42;10.45;;;6.70;;
52316;SDS011;38725;41.994;21.458;2022-09-09T00:25:14;11.00;;;7.55;;
52316;SDS011;38725;41.994;21.458;2022-09-09T00:27:48;7.55;;;6.35;;
52316;SDS011;38725;41.994;21.458;2022-09-09T00:30:19;9.55;;;7.30;;
52316;SDS011;38725;41.994;21.458;2022-09-09T00:32:47;8.68;;;6.60;;
52316;SDS011;38725;41.994;21.458;2022-09-09T00:37:41;8.70;;;7.05;;
52316;SDS011;38725;41.994;21.458;2022-09-09T00:40:15;11.30;;;6.70;;
52316;SDS011;38725;41.994;21.458;2022-09-09T00:42:44;9.43;;;6.70;;
52316;SDS011;38725;41.994;21.458;2022-09-09T00:58:13;10.35;;;7.32;;
52316;SDS011;38725;41.994;21.458;2022-09-09T01:00:43;11.02;;;7.78;;
52316;SDS011;38725;41.994;21.458;2022-09-09T01:05:54;8.68;;;7.32;;
52316;SDS011;38725;41.994;21.458;2022-09-09T01:10:55;12.13;;;7.97;;
52316;SDS011;38725;41.994;21.458;2022-09-09T01:13:27;11.82;;;8.65;;
52316;SDS011;38725;41.994;21.458;2022-09-09T01:15:59;15.27;;;9.40;;
52316;SDS011;38725;41.994;21.458;2022-09-09T01:19:00;13.75;;;9.00;;
52316;SDS011;38725;41.994;21.458;2022-09-09T01:24:05;17.45;;;10.18;;
52316;SDS011;38725;41.994;21.458;2022-09-09T01:26:37;12.43;;;9.75;;
52316;SDS011;38725;41.994;21.458;2022-09-09T01:29:06;15.02;;;11.02;;
52316;SDS011;38725;41.994;21.458;2022-09-09T01:31:36;14.60;;;11.77;;
52316;SDS011;38725;41.994;21.458;2022-09-09T01:34:08;16.95;;;10.85;;
52316;SDS011;38725;41.994;21.458;2022-09-09T01:36:37;13.75;;;10.68;;
52316;SDS011;38725;41.994;21.458;2022-09-09T01:39:05;15.23;;;11.35;;
52316;SDS011;38725;41.994;21.458;2022-09-09T01:41:31;15.60;;;11.18;;
52316;SDS011;38725;41.994;21.458;2022-09-09T01:43:57;13.05;;;11.02;;
52316;SDS011;38725;41.994;21.458;2022-09-09T01:46:23;20.20;;;11.30;;
52316;SDS011;38725;41.994;21.458;2022-09-09T01:48:52;17.80;;;11.00;;
52316;SDS011;38725;41.994;21.458;2022-09-09T01:51:19;19.45;;;11.40;;
52316;SDS011;38725;41.994;21.458;2022-09-09T01:53:45;15.93;;;11.50;;
52316;SDS011;38725;41.994;21.458;2022-09-09T02:01:11;17.70;;;11.80;;
52316;SDS011;38725;41.994;21.458;2022-09-09T02:03:39;16.92;;;11.75;;
52316;SDS011;38725;41.994;21.458;2022-09-09T02:08:45;16.35;;;11.52;;
52316;SDS011;38725;41.994;21.458;2022-09-09T02:11:13;20.40;;;10.93;;
52316;SDS011;38725;41.994;21.458;2022-09-09T02:13:40;13.75;;;10.35;;
52316;SDS011;38725;41.994;21.458;2022-09-09T02:16:07;16.83;;;10.43;;
52316;SDS011;38725;41.994;21.458;2022-09-09T02:21:00;15.00;;;9.85;;
52316;SDS011;38725;41.994;21.458;2022-09-09T02:23:28;13.85;;;10.25;;
52316;SDS011;38725;41.994;21.458;2022-09-09T02:25:55;17.38;;;11.00;;
52316;SDS011;38725;41.994;21.458;2022-09-09T02:28:23;14.43;;;10.38;;
52316;SDS011;38725;41.994;21.458;2022-09-09T02:30:50;14.45;;;9.93;;
52316;SDS011;38725;41.994;21.458;2022-09-09T02:33:22;16.02;;;11.18;;
52316;SDS011;38725;41.994;21.458;2022-09-09T02:35:49;17.80;;;11.15;;
52316;SDS011;38725;41.994;21.458;2022-09-09T02:38:16;14.25;;;10.93;;
52316;SDS011;38725;41.994;21.458;2022-09-09T02:40:43;13.52;;;11.02;;
52316;SDS011;38725;41.994;21.458;2022-09-09T02:43:09;14.93;;;11.05;;
52316;SDS011;38725;41.994;21.458;2022-09-09T02:45:47;16.60;;;11.60;;
52316;SDS011;38725;41.994;21.458;2022-09-09T02:48:29;15.75;;;11.93;;
52316;SDS011;38725;41.994;21.458;2022-09-09T02:53:28;13.38;;;10.75;;
52316;SDS011;38725;41.994;21.458;2022-09-09T02:56:02;13.35;;;10.88;;
52316;SDS011;38725;41.994;21.458;2022-09-09T02:58:29;12.88;;;10.80;;
52316;SDS011;38725;41.994;21.458;2022-09-09T03:00:56;14.30;;;10.77;;
52316;SDS011;38725;41.994;21.458;2022-09-09T03:03:23;16.25;;;11.00;;
52316;SDS011;38725;41.994;21.458;2022-09-09T03:05:49;14.13;;;10.38;;
52316;SDS011;38725;41.994;21.458;2022-09-09T03:08:15;13.05;;;10.80;;
52316;SDS011;38725;41.994;21.458;2022-09-09T03:10:42;17.55;;;11.10;;
52316;SDS011;38725;41.994;21.458;2022-09-09T03:13:08;14.30;;;10.93;;
52316;SDS011;38725;41.994;21.458;2022-09-09T03:15:34;15.80;;;10.90;;
52316;SDS011;38725;41.994;21.458;2022-09-09T03:18:00;15.27;;;11.02;;
52316;SDS011;38725;41.994;21.458;2022-09-09T03:20:27;15.63;;;11.02;;
52316;SDS011;38725;41.994;21.458;2022-09-09T03:22:54;13.77;;;10.07;;
52316;SDS011;38725;41.994;21.458;2022-09-09T03:25:21;12.48;;;10.13;;
52316;SDS011;38725;41.994;21.458;2022-09-09T03:27:51;17.33;;;10.68;;
52316;SDS011;38725;41.994;21.458;2022-09-09T03:30:19;16.45;;;11.35;;
52316;SDS011;38725;41.994;21.458;2022-09-09T03:32:46;15.50;;;10.75;;
52316;SDS011;38725;41.994;21.458;2022-09-09T03:35:12;13.75;;;10.82;;
52316;SDS011;38725;41.994;21.458;2022-09-09T03:37:38;15.63;;;11.02;;
52316;SDS011;38725;41.994;21.458;2022-09-09T03:40:04;14.15;;;10.68;;
52316;SDS011;38725;41.994;21.458;2022-09-09T03:42:31;14.70;;;10.23;;
52316;SDS011;38725;41.994;21.458;2022-09-09T03:44:57;14.93;;;10.55;;
52316;SDS011;38725;41.994;21.458;2022-09-09T03:47:24;20.15;;;12.13;;
52316;SDS011;38725;41.994;21.458;2022-09-09T03:49:50;16.65;;;10.98;;
52316;SDS011;38725;41.994;21.458;2022-09-09T03:52:16;14.73;;;10.30;;
52316;SDS011;38725;41.994;21.458;2022-09-09T03:54:43;18.48;;;11.00;;
52316;SDS011;38725;41.994;21.458;2022-09-09T03:57:09;18.60;;;11.63;;
52316;SDS011;38725;41.994;21.458;2022-09-09T03:59:36;16.73;;;11.00;;
52316;SDS011;38725;41.994;21.458;2022-09-09T04:02:02;18.65;;;10.93;;
52316;SDS011;38725;41.994;21.458;2022-09-09T04:04:28;15.98;;;11.40;;
52316;SDS011;38725;41.994;21.458;2022-09-09T04:06:54;14.15;;;10.68;;
52316;SDS011;38725;41.994;21.458;2022-09-09T04:09:21;13.77;;;10.18;;
52316;SDS011;38725;41.994;21.458;2022-09-09T04:11:47;17.30;;;10.30;;
52316;SDS011;38725;41.994;21.458;2022-09-09T04:14:14;13.57;;;9.82;;
52316;SDS011;38725;41.994;21.458;2022-09-09T04:16:40;14.73;;;9.82;;
52316;SDS011;38725;41.994;21.458;2022-09-09T04:19:10;14.18;;;10.55;;
52316;SDS011;38725;41.994;21.458;2022-09-09T04:21:38;16.77;;;9.80;;
52316;SDS011;38725;41.994;21.458;2022-09-09T04:24:05;13.57;;;10.27;;
52316;SDS011;38725;41.994;21.458;2022-09-09T04:26:31;13.70;;;10.23;;
52316;SDS011;38725;41.994;21.458;2022-09-09T04:28:57;19.67;;;9.98;;
52316;SDS011;38725;41.994;21.458;2022-09-09T04:31:24;16.05;;;10.55;;
52316;SDS011;38725;41.994;21.458;2022-09-09T04:33:50;17.50;;;10.68;;
52316;SDS011;38725;41.994;21.458;2022-09-09T04:36:17;13.45;;;10.02;;
52316;SDS011;38725;41.994;21.458;2022-09-09T04:38:44;15.40;;;10.57;;
52316;SDS011;38725;41.994;21.458;2022-09-09T04:41:10;18.33;;;10.73;;
52316;SDS011;38725;41.994;21.458;2022-09-09T04:43:40;17.17;;;10.45;;
52316;SDS011;38725;41.994;21.458;2022-09-09T04:46:06;18.55;;;11.35;;
52316;SDS011;38725;41.994;21.458;2022-09-09T04:48:32;17.48;;;11.38;;
52316;SDS011;38725;41.994;21.458;2022-09-09T04:51:03;15.82;;;11.13;;
52316;SDS011;38725;41.994;21.458;2022-09-09T04:53:29;14.25;;;10.68;;
52316;SDS011;38725;41.994;21.458;2022-09-09T04:58:28;15.48;;;10.88;;
52316;SDS011;38725;41.994;21.458;2022-09-09T05:00:54;12.98;;;9.63;;
52316;SDS011;38725;41.994;21.458;2022-09-09T05:03:20;17.92;;;10.07;;
52316;SDS011;38725;41.994;21.458;2022-09-09T05:05:46;14.40;;;10.23;;
52316;SDS011;38725;41.994;21.458;2022-09-09T05:08:12;18.50;;;10.00;;
52316;SDS011;38725;41.994;21.458;2022-09-09T05:10:39;12.55;;;9.93;;
52316;SDS011;38725;41.994;21.458;2022-09-09T05:13:06;20.58;;;10.18;;
52316;SDS011;38725;41.994;21.458;2022-09-09T05:15:33;16.52;;;9.88;;
52316;SDS011;38725;41.994;21.458;2022-09-09T05:17:59;12.10;;;9.18;;
52316;SDS011;38725;41.994;21.458;2022-09-09T05:20:26;16.33;;;9.85;;
52316;SDS011;38725;41.994;21.458;2022-09-09T05:22:53;15.68;;;10.25;;
52316;SDS011;38725;41.994;21.458;2022-09-09T05:25:19;17.67;;;9.95;;
52316;SDS011;38725;41.994;21.458;2022-09-09T05:27:47;16.23;;;10.15;;
52316;SDS011;38725;41.994;21.458;2022-09-09T05:30:13;13.68;;;9.45;;
52316;SDS011;38725;41.994;21.458;2022-09-09T05:32:39;13.40;;;9.50;;
52316;SDS011;38725;41.994;21.458;2022-09-09T05:35:06;14.20;;;9.10;;
52316;SDS011;38725;41.994;21.458;2022-09-09T05:37:32;11.68;;;8.45;;
52316;SDS011;38725;41.994;21.458;2022-09-09T05:39:58;13.98;;;8.50;;
52316;SDS011;38725;41.994;21.458;2022-09-09T05:42:28;12.40;;;8.02;;
52316;SDS011;38725;41.994;21.458;2022-09-09T05:44:55;10.52;;;7.18;;
52316;SDS011;38725;41.994;21.458;2022-09-09T05:47:23;14.57;;;8.25;;
52316;SDS011;38725;41.994;21.458;2022-09-09T05:49:49;10.50;;;7.05;;
52316;SDS011;38725;41.994;21.458;2022-09-09T05:52:15;11.10;;;7.13;;
52316;SDS011;38725;41.994;21.458;2022-09-09T05:54:41;16.77;;;8.07;;
52316;SDS011;38725;41.994;21.458;2022-09-09T05:57:08;10.50;;;6.88;;
52316;SDS011;38725;41.994;21.458;2022-09-09T05:59:34;10.45;;;6.65;;
52316;SDS011;38725;41.994;21.458;2022-09-09T06:02:00;13.63;;;7.25;;
52316;SDS011;38725;41.994;21.458;2022-09-09T06:04:26;9.88;;;6.95;;
52316;SDS011;38725;41.994;21.458;2022-09-09T06:06:52;12.50;;;6.78;;
52316;SDS011;38725;41.994;21.458;2022-09-09T06:09:18;8.80;;;6.40;;
52316;SDS011;38725;41.994;21.458;2022-09-09T06:11:45;14.38;;;7.63;;
52316;SDS011;38725;41.994;21.458;2022-09-09T06:14:11;14.63;;;7.82;;
52316;SDS011;38725;41.994;21.458;2022-09-09T06:16:37;11.40;;;7.07;;
52316;SDS011;38725;41.994;21.458;2022-09-09T06:19:04;10.48;;;6.75;;
52316;SDS011;38725;41.994;21.458;2022-09-09T06:21:31;9.80;;;7.00;;
52316;SDS011;38725;41.994;21.458;2022-09-09T06:23:57;11.77;;;7.18;;
52316;SDS011;38725;41.994;21.458;2022-09-09T06:26:34;15.20;;;7.63;;
52316;SDS011;38725;41.994;21.458;2022-09-09T06:29:00;13.25;;;7.22;;
52316;SDS011;38725;41.994;21.458;2022-09-09T06:31:28;20.10;;;7.80;;
52316;SDS011;38725;41.994;21.458;2022-09-09T06:33:55;13.60;;;7.43;;
52316;SDS011;38725;41.994;21.458;2022-09-09T06:36:22;12.20;;;7.55;;
52316;SDS011;38725;41.994;21.458;2022-09-09T06:38:49;12.57;;;7.30;;
52316;SDS011;38725;41.994;21.458;2022-09-09T06:41:16;13.45;;;7.75;;
52316;SDS011;38725;41.994;21.458;2022-09-09T06:43:43;17.85;;;9.05;;
52316;SDS011;38725;41.994;21.458;2022-09-09T06:46:11;20.98;;;10.30;;
52316;SDS011;38725;41.994;21.458;2022-09-09T06:48:38;15.07;;;8.98;;
52316;SDS011;38725;41.994;21.458;2022-09-09T06:53:32;20.02;;;9.63;;
52316;SDS011;38725;41.994;21.458;2022-09-09T06:58:37;19.55;;;9.20;;
52316;SDS011;38725;41.994;21.458;2022-09-09T07:01:09;19.38;;;9.68;;
52316;SDS011;38725;41.994;21.458;2022-09-09T07:03:37;20.77;;;10.40;;
52316;SDS011;38725;41.994;21.458;2022-09-09T07:06:03;18.73;;;9.88;;
52316;SDS011;38725;41.994;21.458;2022-09-09T07:08:30;16.17;;;8.95;;
52316;SDS011;38725;41.994;21.458;2022-09-09T07:11:06;20.45;;;9.10;;
52316;SDS011;38725;41.994;21.458;2022-09-09T07:13:33;19.77;;;9.10;;
52316;SDS011;38725;41.994;21.458;2022-09-09T07:16:05;24.83;;;9.40;;
52316;SDS011;38725;41.994;21.458;2022-09-09T07:18:31;16.70;;;9.15;;
52316;SDS011;38725;41.994;21.458;2022-09-09T07:20:58;17.52;;;9.05;;
52316;SDS011;38725;41.994;21.458;2022-09-09T07:23:24;20.02;;;9.52;;
52316;SDS011;38725;41.994;21.458;2022-09-09T07:25:51;23.40;;;8.65;;
52316;SDS011;38725;41.994;21.458;2022-09-09T07:28:18;17.77;;;7.72;;
52316;SDS011;38725;41.994;21.458;2022-09-09T07:30:52;11.65;;;6.45;;
52316;SDS011;38725;41.994;21.458;2022-09-09T07:33:18;10.35;;;7.03;;
52316;SDS011;38725;41.994;21.458;2022-09-09T07:35:45;12.00;;;6.45;;
52316;SDS011;38725;41.994;21.458;2022-09-09T07:38:11;8.20;;;5.53;;
52316;SDS011;38725;41.994;21.458;2022-09-09T07:40:37;9.55;;;6.32;;
52316;SDS011;38725;41.994;21.458;2022-09-09T07:43:04;9.57;;;5.97;;
52316;SDS011;38725;41.994;21.458;2022-09-09T07:45:30;18.63;;;5.95;;
52316;SDS011;38725;41.994;21.458;2022-09-09T07:47:57;10.02;;;5.70;;
52316;SDS011;38725;41.994;21.458;2022-09-09T07:50:23;12.88;;;6.30;;
52316;SDS011;38725;41.994;21.458;2022-09-09T07:52:51;10.73;;;6.03;;
52316;SDS011;38725;41.994;21.458;2022-09-09T07:55:18;7.82;;;5.55;;
52316;SDS011;38725;41.994;21.458;2022-09-09T07:57:44;13.27;;;5.35;;
52316;SDS011;38725;41.994;21.458;2022-09-09T08:00:10;10.45;;;5.93;;
52316;SDS011;38725;41.994;21.458;2022-09-09T08:02:37;7.18;;;5.80;;
52316;SDS011;38725;41.994;21.458;2022-09-09T08:05:03;9.27;;;6.50;;
52316;SDS011;38725;41.994;21.458;2022-09-09T08:07:31;9.23;;;5.40;;
52316;SDS011;38725;41.994;21.458;2022-09-09T08:09:57;7.82;;;6.00;;
52316;SDS011;38725;41.994;21.458;2022-09-09T08:12:23;8.30;;;5.68;;
52316;SDS011;38725;41.994;21.458;2022-09-09T08:14:49;9.40;;;5.30;;
52316;SDS011;38725;41.994;21.458;2022-09-09T08:17:16;6.15;;;5.38;;
52316;SDS011;38725;41.994;21.458;2022-09-09T08:19:42;6.38;;;5.30;;
52316;SDS011;38725;41.994;21.458;2022-09-09T08:22:09;7.85;;;6.00;;
52316;SDS011;38725;41.994;21.458;2022-09-09T08:24:35;9.63;;;5.65;;
52316;SDS011;38725;41.994;21.458;2022-09-09T08:27:01;6.63;;;5.28;;
52316;SDS011;38725;41.994;21.458;2022-09-09T08:29:27;17.58;;;6.03;;
52316;SDS011;38725;41.994;21.458;2022-09-09T08:31:55;9.20;;;6.07;;
52316;SDS011;38725;41.994;21.458;2022-09-09T08:34:22;7.80;;;5.70;;
52316;SDS011;38725;41.994;21.458;2022-09-09T08:36:49;12.65;;;6.22;;
52316;SDS011;38725;41.994;21.458;2022-09-09T08:39:16;10.60;;;5.60;;
52316;SDS011;38725;41.994;21.458;2022-09-09T08:52:17;7.25;;;5.45;;
52316;SDS011;38725;41.994;21.458;2022-09-09T08:54:45;8.68;;;5.07;;
52316;SDS011;38725;41.994;21.458;2022-09-09T08:57:14;10.82;;;5.30;;
52316;SDS011;38725;41.994;21.458;2022-09-09T08:59:44;8.73;;;5.45;;
52316;SDS011;38725;41.994;21.458;2022-09-09T09:09:38;9.15;;;6.00;;
52316;SDS011;38725;41.994;21.458;2022-09-09T09:12:16;7.25;;;5.72;;
52316;SDS011;38725;41.994;21.458;2022-09-09T09:14:43;7.43;;;5.68;;
52316;SDS011;38725;41.994;21.458;2022-09-09T09:17:17;11.30;;;5.57;;
52316;SDS011;38725;41.994;21.458;2022-09-09T09:19:44;9.70;;;5.88;;
52316;SDS011;38725;41.994;21.458;2022-09-09T09:27:19;9.88;;;6.70;;
52316;SDS011;38725;41.994;21.458;2022-09-09T09:29:48;10.60;;;5.85;;
52316;SDS011;38725;41.994;21.458;2022-09-09T09:32:15;12.25;;;6.03;;
52316;SDS011;38725;41.994;21.458;2022-09-09T09:34:42;9.93;;;6.30;;
52316;SDS011;38725;41.994;21.458;2022-09-09T09:37:25;9.38;;;6.15;;
52316;SDS011;38725;41.994;21.458;2022-09-09T09:39:53;14.55;;;6.80;;
52316;SDS011;38725;41.994;21.458;2022-09-09T09:42:19;11.48;;;6.25;;
52316;SDS011;38725;41.994;21.458;2022-09-09T09:44:45;7.07;;;6.10;;
52316;SDS011;38725;41.994;21.458;2022-09-09T09:47:21;11.38;;;6.50;;
52316;SDS011;38725;41.994;21.458;2022-09-09T09:49:52;11.55;;;5.90;;
52316;SDS011;38725;41.994;21.458;2022-09-09T09:52:21;8.77;;;5.97;;
52316;SDS011;38725;41.994;21.458;2022-09-09T09:54:49;8.57;;;6.07;;
52316;SDS011;38725;41.994;21.458;2022-09-09T09:57:16;7.75;;;5.68;;
52316;SDS011;38725;41.994;21.458;2022-09-09T09:59:42;7.28;;;5.50;;
52316;SDS011;38725;41.994;21.458;2022-09-09T10:04:44;10.57;;;6.05;;
52316;SDS011;38725;41.994;21.458;2022-09-09T10:07:28;9.52;;;5.25;;
52316;SDS011;38725;41.994;21.458;2022-09-09T10:09:55;10.82;;;5.80;;
52316;SDS011;38725;41.994;21.458;2022-09-09T10:20:04;8.93;;;6.28;;
52316;SDS011;38725;41.994;21.458;2022-09-09T10:22:37;10.88;;;6.03;;
52316;SDS011;38725;41.994;21.458;2022-09-09T10:25:09;8.80;;;5.55;;
52316;SDS011;38725;41.994;21.458;2022-09-09T10:33:00;9.65;;;6.63;;
52316;SDS011;38725;41.994;21.458;2022-09-09T10:35:29;16.30;;;6.22;;
52316;SDS011;38725;41.994;21.458;2022-09-09T10:40:37;9.13;;;6.03;;
52316;SDS011;38725;41.994;21.458;2022-09-09T10:43:11;11.38;;;6.25;;
52316;SDS011;38725;41.994;21.458;2022-09-09T10:53:14;7.68;;;6.63;;
52316;SDS011;38725;41.994;21.458;2022-09-09T10:55:45;13.90;;;7.05;;
52316;SDS011;38725;41.994;21.458;2022-09-09T10:58:14;9.23;;;6.15;;
52316;SDS011;38725;41.994;21.458;2022-09-09T11:00:47;10.20;;;6.25;;
52316;SDS011;38725;41.994;21.458;2022-09-09T11:03:17;9.57;;;6.30;;
52316;SDS011;38725;41.994;21.458;2022-09-09T11:08:18;11.88;;;6.63;;
52316;SDS011;38725;41.994;21.458;2022-09-09T11:15:52;16.98;;;7.35;;
52316;SDS011;38725;41.994;21.458;2022-09-09T11:18:21;16.90;;;8.57;;
52316;SDS011;38725;41.994;21.458;2022-09-09T11:20:58;10.98;;;7.65;;
52316;SDS011;38725;41.994;21.458;2022-09-09T11:23:38;11.05;;;8.35;;
52316;SDS011;38725;41.994;21.458;2022-09-09T11:26:06;13.25;;;8.40;;
52316;SDS011;38725;41.994;21.458;2022-09-09T11:39:00;14.52;;;9.27;;
52316;SDS011;38725;41.994;21.458;2022-09-09T11:41:32;10.48;;;8.82;;
52316;SDS011;38725;41.994;21.458;2022-09-09T11:43:59;13.38;;;8.10;;
52316;SDS011;38725;41.994;21.458;2022-09-09T11:46:33;13.93;;;8.52;;
52316;SDS011;38725;41.994;21.458;2022-09-09T11:49:01;12.98;;;9.85;;
52316;SDS011;38725;41.994;21.458;2022-09-09T11:51:28;12.18;;;9.02;;
52316;SDS011;38725;41.994;21.458;2022-09-09T11:58:55;13.57;;;8.82;;
52316;SDS011;38725;41.994;21.458;2022-09-09T12:01:27;14.52;;;9.05;;
52316;SDS011;38725;41.994;21.458;2022-09-09T12:06:50;14.85;;;9.20;;
52316;SDS011;38725;41.994;21.458;2022-09-09T12:14:35;13.18;;;9.10;;
52316;SDS011;38725;41.994;21.458;2022-09-09T12:19:40;11.25;;;8.20;;
52316;SDS011;38725;41.994;21.458;2022-09-09T12:24:41;12.70;;;8.52;;
52316;SDS011;38725;41.994;21.458;2022-09-09T12:27:15;10.63;;;8.70;;
52316;SDS011;38725;41.994;21.458;2022-09-09T12:32:22;15.88;;;9.65;;
52316;SDS011;38725;41.994;21.458;2022-09-09T12:34:51;12.38;;;8.52;;
52316;SDS011;38725;41.994;21.458;2022-09-09T12:40:35;11.07;;;8.80;;
52316;SDS011;38725;41.994;21.458;2022-09-09T12:42:42;12.60;;;8.13;;
52316;SDS011;38725;41.994;21.458;2022-09-09T12:45:15;10.05;;;7.45;;
52316;SDS011;38725;41.994;21.458;2022-09-09T12:47:49;10.30;;;7.70;;
52316;SDS011;38725;41.994;21.458;2022-09-09T12:50:23;10.68;;;8.68;;
52316;SDS011;38725;41.994;21.458;2022-09-09T12:52:51;9.15;;;7.38;;
52316;SDS011;38725;41.994;21.458;2022-09-09T12:55:20;8.63;;;7.38;;
52316;SDS011;38725;41.994;21.458;2022-09-09T12:57:46;9.57;;;7.55;;
52316;SDS011;38725;41.994;21.458;2022-09-09T13:00:16;11.55;;;6.45;;
52316;SDS011;38725;41.994;21.458;2022-09-09T13:02:47;8.25;;;6.90;;
52316;SDS011;38725;41.994;21.458;2022-09-09T13:05:17;8.75;;;7.45;;
52316;SDS011;38725;41.994;21.458;2022-09-09T13:07:44;11.85;;;9.30;;
52316;SDS011;38725;41.994;21.458;2022-09-09T13:10:11;9.10;;;7.75;;
52316;SDS011;38725;41.994;21.458;2022-09-09T13:12:37;9.98;;;6.45;;
52316;SDS011;38725;41.994;21.458;2022-09-09T13:15:03;7.63;;;6.50;;
52316;SDS011;38725;41.994;21.458;2022-09-09T13:17:30;11.18;;;7.60;;
52316;SDS011;38725;41.994;21.458;2022-09-09T13:19:56;11.98;;;7.53;;
52316;SDS011;38725;41.994;21.458;2022-09-09T13:24:58;8.07;;;6.68;;
52316;SDS011;38725;41.994;21.458;2022-09-09T13:27:31;8.50;;;6.40;;
52316;SDS011;38725;41.994;21.458;2022-09-09T13:29:59;6.53;;;5.20;;
52316;SDS011;38725;41.994;21.458;2022-09-09T13:32:26;8.77;;;4.75;;
52316;SDS011;38725;41.994;21.458;2022-09-09T13:37:22;6.43;;;4.82;;
52316;SDS011;38725;41.994;21.458;2022-09-09T13:39:53;8.48;;;5.30;;
52316;SDS011;38725;41.994;21.458;2022-09-09T13:42:26;8.75;;;7.88;;
52316;SDS011;38725;41.994;21.458;2022-09-09T13:47:21;13.98;;;9.60;;
52316;SDS011;38725;41.994;21.458;2022-09-09T13:49:50;8.45;;;5.03;;
52316;SDS011;38725;41.994;21.458;2022-09-09T13:52:17;9.35;;;5.75;;
52316;SDS011;38725;41.994;21.458;2022-09-09T13:54:47;14.57;;;12.98;;
52316;SDS011;38725;41.994;21.458;2022-09-09T13:57:18;14.25;;;8.90;;
52316;SDS011;38725;41.994;21.458;2022-09-09T13:59:45;8.75;;;7.75;;
52316;SDS011;38725;41.994;21.458;2022-09-09T14:02:12;14.15;;;7.25;;
52316;SDS011;38725;41.994;21.458;2022-09-09T14:04:38;10.13;;;8.27;;
52316;SDS011;38725;41.994;21.458;2022-09-09T14:07:06;7.18;;;6.10;;
52316;SDS011;38725;41.994;21.458;2022-09-09T14:09:34;12.35;;;7.55;;
52316;SDS011;38725;41.994;21.458;2022-09-09T14:12:01;7.82;;;4.82;;
52316;SDS011;38725;41.994;21.458;2022-09-09T14:14:27;15.40;;;9.70;;
52316;SDS011;38725;41.994;21.458;2022-09-09T14:16:53;6.50;;;4.53;;
52316;SDS011;38725;41.994;21.458;2022-09-09T14:19:19;9.25;;;4.78;;
52316;SDS011;38725;41.994;21.458;2022-09-09T14:21:45;7.43;;;4.40;;
52316;SDS011;38725;41.994;21.458;2022-09-09T14:24:11;7.43;;;5.15;;
52316;SDS011;38725;41.994;21.458;2022-09-09T14:26:37;7.43;;;4.60;;
52316;SDS011;38725;41.994;21.458;2022-09-09T14:29:03;6.15;;;3.95;;
52316;SDS011;38725;41.994;21.458;2022-09-09T14:31:29;12.40;;;4.57;;
52316;SDS011;38725;41.994;21.458;2022-09-09T14:33:55;8.88;;;4.75;;
52316;SDS011;38725;41.994;21.458;2022-09-09T14:36:22;6.45;;;4.40;;
52316;SDS011;38725;41.994;21.458;2022-09-09T14:38:49;7.47;;;4.80;;
52316;SDS011;38725;41.994;21.458;2022-09-09T14:41:16;6.22;;;3.72;;
52316;SDS011;38725;41.994;21.458;2022-09-09T14:43:43;5.82;;;3.85;;
52316;SDS011;38725;41.994;21.458;2022-09-09T14:46:12;8.57;;;3.72;;
52316;SDS011;38725;41.994;21.458;2022-09-09T14:48:39;10.60;;;4.45;;
52316;SDS011;38725;41.994;21.458;2022-09-09T14:51:09;5.35;;;3.53;;
52316;SDS011;38725;41.994;21.458;2022-09-09T14:53:35;8.18;;;4.07;;
52316;SDS011;38725;41.994;21.458;2022-09-09T14:56:06;10.82;;;4.05;;
52316;SDS011;38725;41.994;21.458;2022-09-09T14:58:33;10.07;;;4.28;;
52316;SDS011;38725;41.994;21.458;2022-09-09T15:01:07;7.10;;;4.63;;
52316;SDS011;38725;41.994;21.458;2022-09-09T15:03:35;10.38;;;5.20;;
52316;SDS011;38725;41.994;21.458;2022-09-09T15:06:09;8.45;;;4.85;;
52316;SDS011;38725;41.994;21.458;2022-09-09T15:08:36;9.52;;;4.88;;
52316;SDS011;38725;41.994;21.458;2022-09-09T15:11:03;13.55;;;7.00;;
52316;SDS011;38725;41.994;21.458;2022-09-09T15:13:29;10.88;;;4.82;;
52316;SDS011;38725;41.994;21.458;2022-09-09T15:15:55;6.90;;;4.00;;
52316;SDS011;38725;41.994;21.458;2022-09-09T15:18:22;10.88;;;4.97;;
52316;SDS011;38725;41.994;21.458;2022-09-09T15:20:49;8.15;;;4.30;;
52316;SDS011;38725;41.994;21.458;2022-09-09T15:23:15;6.47;;;4.63;;
52316;SDS011;38725;41.994;21.458;2022-09-09T15:25:54;17.02;;;4.22;;
52316;SDS011;38725;41.994;21.458;2022-09-09T15:28:21;9.40;;;4.10;;
52316;SDS011;38725;41.994;21.458;2022-09-09T15:30:51;8.80;;;3.80;;
52316;SDS011;38725;41.994;21.458;2022-09-09T15:33:17;11.02;;;4.20;;
52316;SDS011;38725;41.994;21.458;2022-09-09T15:35:44;10.70;;;4.22;;
52316;SDS011;38725;41.994;21.458;2022-09-09T15:38:10;10.68;;;3.42;;
52316;SDS011;38725;41.994;21.458;2022-09-09T15:40:38;5.80;;;2.97;;
52316;SDS011;38725;41.994;21.458;2022-09-09T15:43:07;7.55;;;2.80;;
52316;SDS011;38725;41.994;21.458;2022-09-09T15:45:34;4.85;;;3.30;;
52316;SDS011;38725;41.994;21.458;2022-09-09T15:48:01;7.53;;;3.72;;
52316;SDS011;38725;41.994;21.458;2022-09-09T15:50:27;7.25;;;3.90;;
52316;SDS011;38725;41.994;21.458;2022-09-09T15:52:56;6.32;;;3.40;;
52316;SDS011;38725;41.994;21.458;2022-09-09T15:55:22;6.43;;;3.10;;
52316;SDS011;38725;41.994;21.458;2022-09-09T15:57:51;5.45;;;3.53;;
52316;SDS011;38725;41.994;21.458;2022-09-09T16:00:18;6.00;;;3.30;;
52316;SDS011;38725;41.994;21.458;2022-09-09T16:02:44;8.02;;;3.90;;
52316;SDS011;38725;41.994;21.458;2022-09-09T16:05:10;9.63;;;3.58;;
52316;SDS011;38725;41.994;21.458;2022-09-09T16:07:36;18.85;;;4.60;;
52316;SDS011;38725;41.994;21.458;2022-09-09T16:10:02;6.72;;;4.45;;
52316;SDS011;38725;41.994;21.458;2022-09-09T16:12:28;6.75;;;3.70;;
52316;SDS011;38725;41.994;21.458;2022-09-09T16:14:54;7.40;;;4.05;;
52316;SDS011;38725;41.994;21.458;2022-09-09T16:17:20;8.05;;;3.83;;
52316;SDS011;38725;41.994;21.458;2022-09-09T16:19:46;7.97;;;3.58;;
52316;SDS011;38725;41.994;21.458;2022-09-09T16:22:12;8.50;;;3.58;;
52316;SDS011;38725;41.994;21.458;2022-09-09T16:24:40;9.23;;;3.60;;
52316;SDS011;38725;41.994;21.458;2022-09-09T16:27:06;9.18;;;4.38;;
52316;SDS011;38725;41.994;21.458;2022-09-09T16:29:33;6.10;;;4.50;;
52316;SDS011;38725;41.994;21.458;2022-09-09T16:31:59;8.48;;;4.25;;
52316;SDS011;38725;41.994;21.458;2022-09-09T16:34:25;5.38;;;4.05;;
52316;SDS011;38725;41.994;21.458;2022-09-09T16:36:51;8.90;;;4.13;;
52316;SDS011;38725;41.994;21.458;2022-09-09T16:39:18;7.88;;;4.40;;
52316;SDS011;38725;41.994;21.458;2022-09-09T16:41:45;6.60;;;3.63;;
52316;SDS011;38725;41.994;21.458;2022-09-09T16:44:13;9.18;;;4.47;;
52316;SDS011;38725;41.994;21.458;2022-09-09T16:46:41;10.00;;;4.18;;
52316;SDS011;38725;41.994;21.458;2022-09-09T16:49:08;8.30;;;4.50;;
52316;SDS011;38725;41.994;21.458;2022-09-09T16:51:39;8.70;;;4.88;;
52316;SDS011;38725;41.994;21.458;2022-09-09T16:54:06;10.93;;;4.57;;